»·PEaware :: N179TD KLAX-KSAN

N179TD :: KLAX-KSAN

FLIGHT INFORMATION

Flight Status: Arrived
Operator: Privately registered:
United States
More flights under this callsign
Pilot: Terry D. (17346)
Aircraft: CESSNA 172 SKYHAWK
(C172)
More flights by this aircraft type
Origin: KLAX Los Angeles Intl
United States
Destination: KSAN San Diego Intl-Lindbergh
United States
More flights between these airports :: More routes between these airports
Route: +LAX MZB
File this flight plan on PilotEdge
Remarks: CAT 11
Altitude:
(Current/Filed)
5,500ft
Speed:
(Current/Filed)
110kts
Departed: 27-Nov-17 02:06 PM
Arrived: 27-Nov-17 03:10 PM
Distance/Time
Traveled:
95nm/1:04
Distance/Time
To Go:
Arrived

Flight Plot

Page will automatically refresh every two minutes.

Flight plan parsing failed; only flown route is shown


Map Options




Map Legend


Flown Route
Filed Route
Departure Airport
Arrival Airport
Navaid (VOR, NDB)
Fix

Horizontal Profiles

Position Reports

Time Latitude Longitude Heading Altitude Ground
Speed
27-Nov-17 13:52 33.932746 -118.399123 21 111ft 0kts
27-Nov-17 13:53 33.932746 -118.399123 21 111ft 0kts
27-Nov-17 13:54 33.932746 -118.399123 21 111ft 0kts
27-Nov-17 13:55 33.932746 -118.399123 21 111ft 0kts
27-Nov-17 13:56 33.932746 -118.399123 21 111ft 0kts
27-Nov-17 13:57 33.932746 -118.399123 21 111ft 0kts
27-Nov-17 13:58 33.932746 -118.399123 21 111ft 0kts
27-Nov-17 13:59 33.932746 -118.399123 21 111ft 0kts
27-Nov-17 14:00 33.932746 -118.399123 21 111ft 0kts
27-Nov-17 14:01 33.932746 -118.399123 21 111ft 0kts
27-Nov-17 14:02 33.932746 -118.399123 21 111ft 0kts
27-Nov-17 14:03 33.932746 -118.399123 21 111ft 0kts
27-Nov-17 14:04 33.932746 -118.399123 21 111ft 0kts
27-Nov-17 14:05 33.932746 -118.399123 21 111ft 0kts
27-Nov-17 14:06 33.932752 -118.399120 21 111ft 0kts
27-Nov-17 14:07 33.933849 -118.398393 41 109ft 9kts
27-Nov-17 14:08 33.934878 -118.394837 82 105ft 12kts
27-Nov-17 14:09 33.935330 -118.393723 1 103ft 0kts
27-Nov-17 14:10 33.935419 -118.393724 356 103ft 6kts
27-Nov-17 14:11 33.935154 -118.405703 263 345ft 84kts
27-Nov-17 14:12 33.934318 -118.428060 264 1285ft 80kts
27-Nov-17 14:13 33.933633 -118.455821 265 2273ft 90kts
27-Nov-17 14:14 33.932650 -118.491314 268 2644ft 121kts
27-Nov-17 14:15 33.932205 -118.538244 268 2864ft 123kts
27-Nov-17 14:16 33.930259 -118.572529 251 2930ft 125kts
27-Nov-17 14:17 33.905931 -118.563330 133 3525ft 107kts
27-Nov-17 14:18 33.885110 -118.537563 133 4241ft 109kts
27-Nov-17 14:19 33.864259 -118.511853 136 4800ft 110kts
27-Nov-17 14:20 33.843419 -118.486237 134 5415ft 101kts
27-Nov-17 14:21 33.821282 -118.459233 135 5572ft 123kts
27-Nov-17 14:22 33.796264 -118.428895 135 5464ft 129kts
27-Nov-17 14:23 33.771862 -118.398677 133 5459ft 130kts
27-Nov-17 14:24 33.747121 -118.368171 132 5426ft 129kts
27-Nov-17 14:25 33.724620 -118.338280 131 5427ft 118kts
27-Nov-17 14:26 33.702545 -118.309213 134 5457ft 115kts
27-Nov-17 14:27 33.680320 -118.280650 134 5468ft 118kts
27-Nov-17 14:28 33.658385 -118.251703 132 5498ft 117kts
27-Nov-17 14:29 33.636321 -118.222814 133 5527ft 117kts
27-Nov-17 14:30 33.613528 -118.194328 135 5501ft 119kts
27-Nov-17 14:31 33.590212 -118.166032 137 5456ft 120kts
27-Nov-17 14:32 33.567928 -118.136573 130 5425ft 120kts
27-Nov-17 14:33 33.545836 -118.107292 133 5425ft 119kts
27-Nov-17 14:34 33.523459 -118.078679 134 5463ft 117kts
27-Nov-17 14:35 33.500646 -118.050400 133 5482ft 117kts
27-Nov-17 14:36 33.478412 -118.021824 135 5498ft 118kts
27-Nov-17 14:37 33.456267 -117.992998 133 5496ft 119kts
27-Nov-17 14:38 33.433468 -117.964771 133 5536ft 117kts
27-Nov-17 14:39 33.410580 -117.936410 138 5511ft 119kts
27-Nov-17 14:40 33.387709 -117.907730 133 5500ft 119kts
27-Nov-17 14:41 33.365852 -117.878153 130 5486ft 119kts
27-Nov-17 14:42 33.343110 -117.849402 137 5467ft 119kts
27-Nov-17 14:43 33.320503 -117.820432 132 5462ft 118kts
27-Nov-17 14:44 33.298770 -117.790956 119 5449ft 119kts
27-Nov-17 14:45 33.276574 -117.761664 132 5451ft 117kts
27-Nov-17 14:46 33.253824 -117.733005 134 5427ft 119kts
27-Nov-17 14:47 33.230409 -117.705147 133 5430ft 117kts
27-Nov-17 14:48 33.207892 -117.676784 133 5488ft 113kts
27-Nov-17 14:49 33.186161 -117.648347 132 5514ft 117kts
27-Nov-17 14:50 33.162975 -117.620177 133 5484ft 118kts
27-Nov-17 14:51 33.139310 -117.592459 132 5460ft 119kts
27-Nov-17 14:52 33.116704 -117.563862 133 5444ft 119kts
27-Nov-17 14:53 33.093992 -117.535122 134 5431ft 119kts
27-Nov-17 14:54 33.071494 -117.506279 129 5420ft 119kts
27-Nov-17 14:55 33.050181 -117.476287 112 5392ft 120kts
27-Nov-17 14:56 33.054153 -117.484579 167 4185ft 131kts
27-Nov-17 14:57 33.053796 -117.479890 193 3414ft 113kts
27-Nov-17 14:58 33.049402 -117.452179 144 3342ft 102kts
27-Nov-17 14:59 33.036289 -117.423312 119 3282ft 113kts
27-Nov-17 15:00 33.015094 -117.398998 141 3313ft 106kts
27-Nov-17 15:01 32.992480 -117.376840 141 3418ft 106kts
27-Nov-17 15:02 32.967936 -117.354530 144 3126ft 125kts
27-Nov-17 15:03 32.940697 -117.335912 154 2195ft 109kts
27-Nov-17 15:04 32.916148 -117.322267 155 1845ft 81kts
27-Nov-17 15:05 32.895735 -117.309854 149 2412ft 83kts
27-Nov-17 15:06 32.874412 -117.291792 140 2628ft 114kts
27-Nov-17 15:07 32.848953 -117.266735 142 2520ft 115kts
27-Nov-17 15:08 32.823512 -117.243515 142 2450ft 118kts
27-Nov-17 15:09 32.797906 -117.220260 143 2368ft 121kts
27-Nov-17 15:10 32.768611 -117.200378 154 1616ft 134kts
27-Nov-17 15:11 32.756120 -117.173563 103 1138ft 70kts
27-Nov-17 15:12 32.748595 -117.153658 178 1090ft 81kts
27-Nov-17 15:13 32.729427 -117.159815 232 830ft 74kts
27-Nov-17 15:14 32.732413 -117.184841 286 17ft 67kts
27-Nov-17 15:15 32.734678 -117.190740 38 17ft 0kts
27-Nov-17 15:16 32.734678 -117.190740 38 17ft 0kts
27-Nov-17 15:17 32.734678 -117.190740 38 17ft 0kts
27-Nov-17 15:18 32.734679 -117.190739 38 17ft 0kts
27-Nov-17 15:19 32.734679 -117.190739 38 17ft 0kts
27-Nov-17 15:20 32.734679 -117.190739 38 17ft 0kts
27-Nov-17 15:21 32.734530 -117.188781 105 17ft 14kts
27-Nov-17 15:22 32.733176 -117.183211 107 17ft 20kts
27-Nov-17 15:23 32.732476 -117.178675 33 20ft 8kts
27-Nov-17 15:24 32.732518 -117.178641 31 20ft 0kts
27-Nov-17 15:25 32.732518 -117.178641 31 20ft 0kts
27-Nov-17 15:26 32.732518 -117.178641 31 20ft 0kts
27-Nov-17 15:27 32.732518 -117.178641 31 20ft 0kts
27-Nov-17 15:28 32.732518 -117.178641 31 20ft 0kts
27-Nov-17 15:29 32.732518 -117.178641 31 20ft 0kts
27-Nov-17 15:30 32.732518 -117.178641 31 20ft 0kts

Navigation Log

Ident Type
Flight plan parsing failed, navigation log unavailable